Time;durP1;ratioP1;P1;durP2;ratioP2;P2;SDS_P1;SDS_P2;PMS_P1;PMS_P2;Temp;Humidity;BMP_temperature;BMP_pressure;BME280_temperature;BME280_humidity;BME280_pressure;Samples;Min_cycle;Max_cycle;Signal;HPM_P1;HPM_P2
2021/03/02 00:00:21;;;;;;;17.80;12.50;;;5.20;97.40;;;;;;5048548;28;20205;-73
2021/03/02 00:02:46;;;;;;;12.97;10.03;;;5.20;98.60;;;;;;5027768;28;20191;-73
2021/03/02 00:05:13;;;;;;;11.97;9.57;;;5.20;98.80;;;;;;5033279;28;20212;-74
2021/03/02 00:07:39;;;;;;;12.30;9.37;;;5.20;98.30;;;;;;5038294;28;20178;-73
2021/03/02 00:10:07;;;;;;;11.93;8.97;;;5.20;99.30;;;;;;5028657;28;20187;-73
2021/03/02 00:12:34;;;;;;;11.67;9.30;;;5.20;97.90;;;;;;5026162;28;20191;-73
2021/03/02 00:15:00;;;;;;;12.83;9.43;;;5.20;98.20;;;;;;5020250;28;20203;-73
2021/03/02 00:17:51;;;;;;;12.60;9.53;;;5.20;96.70;;;;;;5034586;28;20186;-73
2021/03/02 00:20:20;;;;;;;12.00;10.30;;;5.10;98.00;;;;;;5040370;28;20245;-74
2021/03/02 00:22:58;;;;;;;11.90;9.33;;;5.00;98.40;;;;;;5030000;28;20205;-73
2021/03/02 00:25:32;;;;;;;12.30;9.97;;;5.00;98.50;;;;;;5030703;28;20667;-74
2021/03/02 00:28:00;;;;;;;11.67;10.43;;;5.00;99.00;;;;;;5035254;28;20310;-73
2021/03/02 00:30:27;;;;;;;17.63;10.20;;;5.00;98.60;;;;;;5025658;28;20191;-72
2021/03/02 00:32:54;;;;;;;12.23;10.07;;;4.90;99.90;;;;;;5035951;28;20201;-74
2021/03/02 00:35:20;;;;;;;14.77;10.03;;;4.90;99.50;;;;;;5023365;28;20197;-73
2021/03/02 00:37:48;;;;;;;11.77;10.57;;;4.90;99.20;;;;;;5039989;28;20185;-74
2021/03/02 00:40:15;;;;;;;10.90;9.27;;;4.80;99.60;;;;;;5042939;28;20222;-73
2021/03/02 00:42:41;;;;;;;12.57;10.97;;;4.80;99.10;;;;;;5033577;28;20187;-71
2021/03/02 00:45:07;;;;;;;12.87;9.47;;;4.80;99.50;;;;;;5017645;28;20205;-72
2021/03/02 00:47:33;;;;;;;12.33;10.33;;;4.70;99.40;;;;;;5028366;28;20202;-73
2021/03/02 00:49:58;;;;;;;14.47;10.60;;;4.70;99.00;;;;;;5033305;28;20181;-73
2021/03/02 00:52:24;;;;;;;21.27;13.27;;;4.70;98.60;;;;;;5035555;28;20191;-73
2021/03/02 00:54:50;;;;;;;17.53;12.70;;;4.80;98.20;;;;;;5040533;28;20204;-74
2021/03/02 00:57:15;;;;;;;17.47;11.43;;;4.80;99.50;;;;;;5031235;28;20521;-73
2021/03/02 00:59:41;;;;;;;16.73;11.13;;;4.80;99.90;;;;;;5033775;28;20666;-74
2021/03/02 01:02:08;;;;;;;14.40;10.50;;;4.80;99.90;;;;;;5033654;28;20675;-72
2021/03/02 01:04:34;;;;;;;12.43;10.17;;;4.80;98.70;;;;;;5037930;28;20203;-73
2021/03/02 01:07:00;;;;;;;12.93;10.67;;;4.70;99.20;;;;;;5038690;28;20267;-73
2021/03/02 01:09:25;;;;;;;10.60;9.50;;;4.70;99.10;;;;;;5048895;28;20182;-74
2021/03/02 01:11:51;;;;;;;13.70;10.00;;;4.70;99.90;;;;;;5042262;28;20187;-71
2021/03/02 01:14:17;;;;;;;12.87;10.27;;;4.60;99.30;;;;;;5033891;28;20300;-73
2021/03/02 01:16:42;;;;;;;12.63;10.27;;;4.60;99.60;;;;;;5047882;28;20218;-73
2021/03/02 01:19:08;;;;;;;12.27;10.37;;;4.60;99.90;;;;;;5027735;28;20213;-75
2021/03/02 01:21:34;;;;;;;13.90;10.00;;;4.60;99.90;;;;;;5036366;28;20603;-73
2021/03/02 01:23:59;;;;;;;10.53;9.17;;;4.60;99.80;;;;;;5035406;28;20788;-73
2021/03/02 01:26:25;;;;;;;12.00;10.00;;;4.60;99.90;;;;;;5031263;28;20667;-73
2021/03/02 01:28:50;;;;;;;12.07;9.10;;;4.60;99.60;;;;;;5042131;28;20242;-73
2021/03/02 01:31:16;;;;;;;11.37;9.90;;;4.60;98.90;;;;;;5033259;28;20196;-73
2021/03/02 01:33:42;;;;;;;13.03;9.93;;;4.60;98.50;;;;;;5035050;28;20180;-73
2021/03/02 01:36:08;;;;;;;12.03;9.87;;;4.50;98.80;;;;;;5032538;28;20204;-73
2021/03/02 01:38:34;;;;;;;11.13;9.50;;;4.40;98.80;;;;;;5032484;28;20201;-73
2021/03/02 01:40:59;;;;;;;11.17;9.63;;;4.30;99.90;;;;;;5033282;28;20230;-73
2021/03/02 01:43:25;;;;;;;11.37;10.10;;;4.20;99.50;;;;;;5048842;28;20177;-73
2021/03/02 01:45:50;;;;;;;11.13;9.80;;;4.20;99.10;;;;;;5044771;28;20204;-73
2021/03/02 01:48:16;;;;;;;11.07;9.33;;;4.10;99.10;;;;;;5030485;28;20602;-73
2021/03/02 01:50:42;;;;;;;11.20;10.00;;;4.10;99.80;;;;;;5031164;28;20185;-73
2021/03/02 01:53:08;;;;;;;11.43;10.10;;;4.10;99.90;;;;;;5035323;28;20544;-73
2021/03/02 01:55:34;;;;;;;12.60;10.77;;;4.00;99.90;;;;;;5034344;28;20213;-72
2021/03/02 01:57:59;;;;;;;13.73;10.70;;;4.00;99.90;;;;;;5049049;28;20245;-73
2021/03/02 02:00:31;;;;;;;11.83;10.20;;;4.00;99.90;;;;;;5044133;28;20220;-72
2021/03/02 02:03:24;;;;;;;15.33;10.77;;;3.90;99.90;;;;;;5033851;28;20249;-73
2021/03/02 02:06:22;;;;;;;13.97;11.00;;;3.90;99.90;;;;;;5053679;28;20679;-73
2021/03/02 02:08:56;;;;;;;14.10;11.77;;;3.90;99.90;;;;;;5053184;28;20551;-73
2021/03/02 02:11:59;;;;;;;16.33;11.27;;;3.80;99.90;;;;;;5045306;28;20184;-72
2021/03/02 02:14:46;;;;;;;14.30;10.13;;;3.80;99.90;;;;;;5038393;28;20691;-73
2021/03/02 02:17:26;;;;;;;20.00;11.53;;;3.80;99.90;;;;;;5036348;28;20184;-73
2021/03/02 02:20:00;;;;;;;14.03;11.10;;;3.70;99.90;;;;;;5031791;28;20220;-73
2021/03/02 02:22:29;;;;;;;13.67;11.03;;;3.70;99.90;;;;;;5029983;28;20198;-73
2021/03/02 02:25:22;;;;;;;12.23;10.73;;;3.70;99.90;;;;;;5040080;28;20210;-73
2021/03/02 02:27:51;;;;;;;12.90;11.13;;;3.70;99.90;;;;;;5038517;28;20237;-73
2021/03/02 02:30:18;;;;;;;12.37;10.80;;;3.60;99.90;;;;;;5043484;28;20195;-73
2021/03/02 02:32:47;;;;;;;12.47;11.10;;;3.60;99.90;;;;;;5030959;28;20186;-73
2021/03/02 02:35:15;;;;;;;14.83;11.27;;;3.60;99.90;;;;;;5045618;28;20195;-73
2021/03/02 02:37:42;;;;;;;13.57;11.90;;;3.60;99.90;;;;;;5034457;28;20267;-73
2021/03/02 02:40:09;;;;;;;14.30;11.93;;;3.60;99.90;;;;;;5027693;28;20772;-73
2021/03/02 02:42:37;;;;;;;14.30;11.20;;;3.50;99.90;;;;;;5028250;28;20193;-73
2021/03/02 02:45:03;;;;;;;15.27;11.97;;;3.50;99.90;;;;;;5039446;28;20276;-73
2021/03/02 02:47:31;;;;;;;14.43;12.43;;;3.40;99.90;;;;;;5038679;28;20184;-73
2021/03/02 02:49:57;;;;;;;12.93;11.00;;;3.40;99.90;;;;;;5033166;28;20191;-73
2021/03/02 02:52:24;;;;;;;13.17;10.87;;;3.40;99.90;;;;;;5040284;28;20240;-73
2021/03/02 02:54:53;;;;;;;13.13;10.93;;;3.30;99.90;;;;;;5030432;28;21370;-73
2021/03/02 02:57:20;;;;;;;14.00;12.13;;;3.30;99.90;;;;;;5041222;28;20185;-72
2021/03/02 02:59:48;;;;;;;17.37;12.70;;;3.30;99.90;;;;;;5036776;28;20566;-73
2021/03/02 03:02:19;;;;;;;13.70;11.27;;;3.30;99.90;;;;;;5040984;28;20190;-73
2021/03/02 03:05:00;;;;;;;13.20;11.73;;;3.30;99.90;;;;;;5044246;28;20213;-73
2021/03/02 03:07:36;;;;;;;15.03;12.10;;;3.30;99.90;;;;;;5046110;28;20183;-73
2021/03/02 03:10:05;;;;;;;16.80;11.57;;;3.30;99.90;;;;;;5049441;28;20198;-73
2021/03/02 03:12:36;;;;;;;18.27;11.90;;;3.40;99.90;;;;;;5027411;28;20256;-73
2021/03/02 03:15:06;;;;;;;13.30;11.80;;;3.30;99.90;;;;;;5047467;28;20208;-73
2021/03/02 03:17:36;;;;;;;14.43;12.33;;;3.30;99.90;;;;;;5040155;28;20186;-73
2021/03/02 03:20:07;;;;;;;13.97;11.30;;;3.30;99.90;;;;;;5029624;28;20239;-73
2021/03/02 03:22:34;;;;;;;13.23;11.73;;;3.30;99.90;;;;;;5040273;28;20205;-73
2021/03/02 03:25:02;;;;;;;15.80;12.60;;;3.20;99.90;;;;;;5030789;28;20211;-73
2021/03/02 03:27:30;;;;;;;12.93;11.00;;;3.20;99.90;;;;;;5030853;28;20174;-73
2021/03/02 03:29:58;;;;;;;13.87;12.37;;;3.10;99.90;;;;;;5018566;28;20279;-73
2021/03/02 03:32:26;;;;;;;12.93;11.40;;;3.00;99.90;;;;;;5024669;28;20599;-73
2021/03/02 03:34:52;;;;;;;15.70;11.53;;;2.90;99.90;;;;;;5020681;28;20295;-73
2021/03/02 03:37:18;;;;;;;14.30;11.63;;;2.90;99.90;;;;;;5030747;28;20180;-73
2021/03/02 03:39:44;;;;;;;15.97;12.00;;;2.80;99.90;;;;;;5019399;28;20204;-73
2021/03/02 03:42:09;;;;;;;17.00;13.37;;;2.70;99.90;;;;;;5047592;28;20236;-73
2021/03/02 03:44:35;;;;;;;14.37;11.90;;;2.70;99.90;;;;;;5033433;28;20229;-73
2021/03/02 03:47:03;;;;;;;14.50;12.00;;;2.70;99.90;;;;;;5038616;28;20564;-72
2021/03/02 03:49:29;;;;;;;16.70;12.67;;;2.70;99.90;;;;;;5031906;28;20191;-72
2021/03/02 03:51:56;;;;;;;15.90;12.33;;;2.80;99.90;;;;;;5024364;28;20242;-72
2021/03/02 03:54:25;;;;;;;16.13;12.13;;;2.80;99.90;;;;;;5029596;28;20263;-72
2021/03/02 03:56:52;;;;;;;17.53;12.77;;;2.80;99.90;;;;;;5030845;28;20189;-73
2021/03/02 03:59:21;;;;;;;14.67;12.30;;;2.80;99.90;;;;;;5034463;28;20292;-73
2021/03/02 04:01:47;;;;;;;14.83;11.93;;;2.70;99.90;;;;;;5024985;28;20228;-73
2021/03/02 04:04:13;;;;;;;15.40;12.03;;;2.70;99.90;;;;;;5029496;28;20214;-73
2021/03/02 04:06:39;;;;;;;16.07;11.73;;;2.70;99.90;;;;;;5027602;28;20181;-73
2021/03/02 04:09:05;;;;;;;16.97;12.93;;;2.60;99.90;;;;;;5036134;28;20281;-73
2021/03/02 04:11:35;;;;;;;14.77;12.23;;;2.60;99.90;;;;;;5030505;28;20184;-72
2021/03/02 04:14:00;;;;;;;15.10;11.97;;;2.50;99.90;;;;;;5033636;28;20220;-73
2021/03/02 04:16:26;;;;;;;16.57;11.77;;;2.50;99.90;;;;;;5031592;28;20190;-73
2021/03/02 04:18:52;;;;;;;14.93;11.57;;;2.50;99.90;;;;;;5030370;28;20205;-73
2021/03/02 04:21:18;;;;;;;14.93;12.00;;;2.40;99.90;;;;;;5040802;28;20203;-72
2021/03/02 04:23:44;;;;;;;15.90;12.00;;;2.40;99.90;;;;;;5036456;28;20222;-73
2021/03/02 04:26:10;;;;;;;16.20;12.10;;;2.30;99.90;;;;;;5036944;28;20240;-73
2021/03/02 04:28:35;;;;;;;15.50;12.73;;;2.30;99.90;;;;;;5037598;28;20181;-73
2021/03/02 04:31:01;;;;;;;15.53;12.33;;;2.30;99.90;;;;;;5037833;28;20182;-73
2021/03/02 04:33:26;;;;;;;17.57;12.33;;;2.20;99.90;;;;;;5030230;28;20283;-73
2021/03/02 04:35:52;;;;;;;16.30;11.63;;;2.20;99.90;;;;;;5035526;28;20243;-71
2021/03/02 04:38:18;;;;;;;15.07;11.97;;;2.10;99.90;;;;;;5036779;28;20209;-73
2021/03/02 04:40:44;;;;;;;17.40;12.00;;;2.00;99.90;;;;;;5030875;28;20577;-73
2021/03/02 04:43:09;;;;;;;15.63;12.33;;;1.90;99.90;;;;;;5052063;28;20212;-71
2021/03/02 04:45:35;;;;;;;17.00;12.07;;;1.90;99.90;;;;;;5049724;28;20210;-73
2021/03/02 04:48:00;;;;;;;16.87;12.00;;;1.80;99.90;;;;;;5036184;28;20587;-73
2021/03/02 04:50:26;;;;;;;16.90;12.57;;;1.80;99.90;;;;;;5044075;28;20292;-74
2021/03/02 04:52:52;;;;;;;17.43;13.10;;;1.70;99.90;;;;;;5023301;28;20205;-73
2021/03/02 04:55:17;;;;;;;22.07;14.00;;;1.70;99.90;;;;;;5045035;28;20207;-71
2021/03/02 04:57:43;;;;;;;16.23;11.97;;;1.70;99.90;;;;;;5034311;28;20211;-72
2021/03/02 05:00:10;;;;;;;19.13;13.03;;;1.60;99.90;;;;;;5027517;28;20208;-71
2021/03/02 05:02:36;;;;;;;17.83;12.60;;;1.60;99.90;;;;;;5022474;28;20188;-74
2021/03/02 05:05:02;;;;;;;20.40;14.50;;;1.60;99.90;;;;;;5028329;28;20576;-74
2021/03/02 05:07:28;;;;;;;19.77;13.60;;;1.50;99.90;;;;;;5027235;28;20184;-73
2021/03/02 05:09:53;;;;;;;16.57;12.90;;;1.50;99.90;;;;;;5028476;28;20223;-73
2021/03/02 05:12:19;;;;;;;17.47;13.57;;;1.40;99.90;;;;;;5020795;28;20210;-73
2021/03/02 05:14:45;;;;;;;17.63;12.80;;;1.50;99.90;;;;;;5027585;28;20203;-73
2021/03/02 05:17:10;;;;;;;16.90;12.77;;;1.40;99.90;;;;;;5047382;28;20212;-73
2021/03/02 05:19:36;;;;;;;16.30;11.90;;;1.40;99.90;;;;;;5019772;28;20210;-71
2021/03/02 05:22:02;;;;;;;17.17;13.47;;;1.40;99.90;;;;;;5028054;28;20184;-74
2021/03/02 05:24:27;;;;;;;18.43;13.30;;;1.40;99.90;;;;;;5042666;28;20274;-71
2021/03/02 05:26:53;;;;;;;16.40;13.03;;;1.40;99.90;;;;;;5034781;28;20177;-73
2021/03/02 05:29:18;;;;;;;18.10;13.10;;;1.40;99.90;;;;;;5036067;28;20186;-74
2021/03/02 05:31:44;;;;;;;16.70;14.00;;;1.40;99.90;;;;;;5036163;28;20179;-73
2021/03/02 05:34:10;;;;;;;15.93;12.83;;;1.40;99.90;;;;;;5039284;28;20208;-75
2021/03/02 05:36:35;;;;;;;17.67;13.73;;;1.30;99.90;;;;;;5022009;28;20271;-75
2021/03/02 05:39:01;;;;;;;14.40;12.53;;;1.30;99.90;;;;;;5028648;28;20199;-75
2021/03/02 05:41:27;;;;;;;16.60;13.70;;;1.30;99.90;;;;;;5037252;28;20180;-75
2021/03/02 05:43:54;;;;;;;18.73;14.43;;;1.40;99.90;;;;;;5031819;28;20206;-74
2021/03/02 05:46:23;;;;;;;19.87;15.23;;;1.40;99.90;;;;;;5028382;28;20179;-73
2021/03/02 05:48:49;;;;;;;21.50;12.50;;;1.40;99.90;;;;;;5027513;28;20202;-73
2021/03/02 05:51:17;;;;;;;18.43;13.03;;;1.40;99.90;;;;;;5025332;28;20280;-73
2021/03/02 05:53:43;;;;;;;20.07;13.67;;;1.40;99.90;;;;;;5030687;28;20195;-72
2021/03/02 05:56:09;;;;;;;18.63;14.10;;;1.50;99.90;;;;;;5024988;28;20275;-73
2021/03/02 05:58:35;;;;;;;17.13;14.17;;;1.50;99.90;;;;;;5022899;28;20200;-72
2021/03/02 06:01:04;;;;;;;19.50;14.50;;;1.60;99.90;;;;;;5030003;28;20686;-72
2021/03/02 06:03:36;;;;;;;17.23;13.37;;;1.70;99.90;;;;;;5018451;28;20675;-73
2021/03/02 06:06:03;;;;;;;18.33;14.10;;;1.70;99.90;;;;;;5029288;28;20187;-73
2021/03/02 06:08:29;;;;;;;18.07;14.47;;;1.70;99.90;;;;;;5018460;28;20553;-74
2021/03/02 06:10:55;;;;;;;15.90;12.97;;;1.70;99.90;;;;;;5030014;28;20196;-73
2021/03/02 06:13:28;;;;;;;17.60;13.70;;;1.70;99.90;;;;;;5028609;28;20192;-73
2021/03/02 06:15:56;;;;;;;17.37;12.93;;;1.60;99.90;;;;;;5027849;28;20206;-73
2021/03/02 06:18:22;;;;;;;18.37;13.93;;;1.60;99.90;;;;;;5021251;28;20552;-72
2021/03/02 06:20:49;;;;;;;16.63;13.40;;;1.70;99.90;;;;;;5026142;28;20347;-73
2021/03/02 06:23:25;;;;;;;17.17;13.67;;;1.70;99.90;;;;;;5035780;28;20195;-73
2021/03/02 06:25:52;;;;;;;16.30;14.23;;;1.70;99.90;;;;;;5032617;28;20759;-73
2021/03/02 06:28:40;;;;;;;20.03;16.10;;;1.80;99.90;;;;;;5028161;28;20205;-73
2021/03/02 06:31:07;;;;;;;18.97;14.10;;;1.90;99.90;;;;;;5026533;28;20186;-73
2021/03/02 06:33:33;;;;;;;20.87;13.20;;;2.20;99.90;;;;;;5041049;28;20701;-73
2021/03/02 06:35:59;;;;;;;18.10;13.20;;;2.40;99.90;;;;;;5029143;28;20175;-73
2021/03/02 06:38:33;;;;;;;17.27;13.37;;;2.60;99.90;;;;;;5034320;28;20540;-73
2021/03/02 06:41:01;;;;;;;23.57;14.43;;;3.00;99.90;;;;;;5030878;28;20215;-74
2021/03/02 06:43:37;;;;;;;16.67;13.37;;;3.50;99.90;;;;;;5021118;28;20182;-73
2021/03/02 06:46:10;;;;;;;20.70;13.77;;;3.90;99.90;;;;;;5031971;28;20529;-73
2021/03/02 06:48:56;;;;;;;20.37;13.53;;;4.40;99.90;;;;;;5029462;28;20218;-73
2021/03/02 06:51:25;;;;;;;20.40;13.83;;;4.80;99.80;;;;;;5016803;28;20216;-73
2021/03/02 06:54:04;;;;;;;15.57;13.10;;;5.10;98.10;;;;;;5018995;28;20227;-73
2021/03/02 06:56:30;;;;;;;19.07;12.80;;;5.30;97.80;;;;;;5030226;28;20197;-73
2021/03/02 06:59:17;;;;;;;25.07;13.63;;;5.40;98.00;;;;;;5026132;28;20189;-73
2021/03/02 07:01:47;;;;;;;23.97;13.37;;;5.70;98.20;;;;;;5026083;28;20181;-72
2021/03/02 07:04:18;;;;;;;19.17;14.53;;;5.80;96.50;;;;;;5029800;28;20716;-74
2021/03/02 07:06:46;;;;;;;21.97;15.07;;;6.10;97.30;;;;;;5026439;28;20185;-73
2021/03/02 07:09:15;;;;;;;20.40;15.10;;;6.40;96.10;;;;;;5018572;28;20172;-73
2021/03/02 07:11:41;;;;;;;20.63;15.13;;;6.70;95.60;;;;;;5018592;28;20186;-73
2021/03/02 07:14:09;;;;;;;19.07;13.73;;;6.90;95.00;;;;;;5021285;28;20318;-73
2021/03/02 07:16:39;;;;;;;18.93;14.13;;;7.20;91.70;;;;;;5020754;28;20180;-73
2021/03/02 07:19:05;;;;;;;22.17;15.10;;;7.50;93.20;;;;;;5031454;28;20177;-75
2021/03/02 07:21:39;;;;;;;18.77;14.70;;;7.90;93.00;;;;;;5028503;28;20207;-74
2021/03/02 07:24:07;;;;;;;18.97;14.20;;;8.30;91.90;;;;;;5014592;28;20270;-74
2021/03/02 07:26:33;;;;;;;18.13;14.13;;;8.60;87.70;;;;;;5025464;28;20176;-74
2021/03/02 07:29:01;;;;;;;20.57;13.23;;;8.80;90.30;;;;;;5023997;28;20177;-74
2021/03/02 07:31:27;;;;;;;18.97;12.67;;;9.20;89.80;;;;;;5027451;28;20538;-74
2021/03/02 07:33:53;;;;;;;16.57;12.23;;;9.80;88.60;;;;;;5027149;28;20204;-75
2021/03/02 07:36:19;;;;;;;22.23;12.73;;;10.60;85.70;;;;;;5047949;28;20562;-75
2021/03/02 07:39:11;;;;;;;16.90;12.33;;;11.40;78.00;;;;;;5029842;28;20189;-75
2021/03/02 07:41:38;;;;;;;14.23;12.13;;;12.10;72.10;;;;;;5030516;28;20184;-75
2021/03/02 07:44:03;;;;;;;15.93;11.57;;;12.70;72.70;;;;;;5026756;28;20215;-75
2021/03/02 07:46:41;;;;;;;16.10;11.75;;;13.30;68.00;;;;;;5032300;28;20164;-75
2021/03/02 07:49:22;;;;;;;13.93;10.88;;;14.10;67.30;;;;;;5021527;28;20178;-75
2021/03/02 07:52:00;;;;;;;17.63;10.73;;;14.80;60.60;;;;;;5036213;28;20206;-75
2021/03/02 07:54:26;;;;;;;15.45;11.13;;;15.00;55.00;;;;;;5032874;28;20720;-75
2021/03/02 07:57:17;;;;;;;18.10;11.25;;;15.30;57.00;;;;;;5014021;28;20191;-75
2021/03/02 07:59:44;;;;;;;15.25;10.20;;;16.00;54.90;;;;;;5027296;28;20291;-75
2021/03/02 08:02:20;;;;;;;14.45;11.07;;;16.40;55.30;;;;;;5018620;28;20192;-75
2021/03/02 08:04:47;;;;;;;17.27;12.48;;;16.70;49.00;;;;;;5017714;28;20291;-74
2021/03/02 08:07:21;;;;;;;16.23;11.73;;;17.00;50.40;;;;;;5029682;28;20226;-75
2021/03/02 08:09:49;;;;;;;15.70;11.00;;;16.80;48.90;;;;;;5028973;28;20191;-75
2021/03/02 08:12:36;;;;;;;14.02;10.63;;;17.30;49.00;;;;;;5024946;28;20192;-76
2021/03/02 08:15:22;;;;;;;12.20;10.55;;;17.30;49.50;;;;;;5024321;28;20208;-75
2021/03/02 08:17:47;;;;;;;15.57;10.68;;;17.60;48.00;;;;;;5039102;28;20298;-75
2021/03/02 08:20:13;;;;;;;15.73;10.07;;;18.20;48.80;;;;;;5024741;28;20298;-74
2021/03/02 08:22:42;;;;;;;14.57;10.38;;;18.60;48.90;;;;;;5022879;28;20915;-74
2021/03/02 08:25:24;;;;;;;11.43;9.52;;;19.30;45.80;;;;;;5019606;28;20197;-75
2021/03/02 08:27:52;;;;;;;11.50;9.60;;;19.70;45.20;;;;;;5016547;28;20177;-75
2021/03/02 08:30:24;;;;;;;10.55;9.52;;;20.30;43.40;;;;;;5030747;28;20180;-75
2021/03/02 08:32:51;;;;;;;10.25;9.10;;;20.70;40.20;;;;;;5030005;28;20176;-75
2021/03/02 08:35:22;;;;;;;13.55;9.70;;;21.20;40.90;;;;;;5009813;28;20201;-75
2021/03/02 08:37:50;;;;;;;10.73;9.63;;;21.10;42.00;;;;;;5026144;28;20172;-75
2021/03/02 08:40:19;;;;;;;12.20;9.95;;;21.70;43.00;;;;;;5012743;28;20236;-74
2021/03/02 08:43:03;;;;;;;11.32;10.05;;;22.10;39.70;;;;;;5032197;28;20245;-75
2021/03/02 08:45:45;;;;;;;10.60;9.57;;;22.30;39.60;;;;;;5019728;28;20327;-75
2021/03/02 08:48:18;;;;;;;11.85;10.07;;;22.50;36.60;;;;;;5021153;28;20188;-75
2021/03/02 08:50:44;;;;;;;11.65;9.70;;;22.40;41.30;;;;;;5024552;28;20184;-75
2021/03/02 08:53:32;;;;;;;14.57;10.00;;;23.10;37.00;;;;;;5019618;28;20593;-75
2021/03/02 08:55:59;;;;;;;12.98;10.93;;;23.70;36.80;;;;;;5029070;28;20187;-75
2021/03/02 08:58:29;;;;;;;11.57;10.02;;;24.30;36.60;;;;;;5015546;28;20185;-74
2021/03/02 09:01:00;;;;;;;14.70;10.35;;;24.80;36.10;;;;;;5025998;28;20589;-76
2021/03/02 09:03:25;;;;;;;11.80;9.70;;;25.20;35.70;;;;;;5021806;28;20181;-76
2021/03/02 09:06:12;;;;;;;16.52;9.98;;;25.90;33.30;;;;;;5029953;28;20211;-75
2021/03/02 09:08:59;;;;;;;16.35;10.32;;;25.60;33.60;;;;;;5029806;28;20179;-75
2021/03/02 09:11:29;;;;;;;10.90;9.80;;;26.30;33.30;;;;;;5040235;28;20200;-75
2021/03/02 09:13:57;;;;;;;12.40;9.68;;;26.20;31.60;;;;;;5039887;28;20238;-74
2021/03/02 09:16:28;;;;;;;19.95;11.18;;;26.60;30.90;;;;;;5039985;28;20211;-74
2021/03/02 09:19:11;;;;;;;10.40;9.40;;;26.00;30.00;;;;;;5026337;28;20189;-75
2021/03/02 09:21:39;;;;;;;32.92;12.23;;;25.20;30.30;;;;;;5016928;28;20310;-75
2021/03/02 09:24:06;;;;;;;19.20;10.35;;;25.30;30.60;;;;;;5018729;28;20351;-75
2021/03/02 09:26:33;;;;;;;15.43;10.13;;;25.20;31.80;;;;;;5029178;28;20262;-75
2021/03/02 09:29:07;;;;;;;21.15;10.43;;;25.60;31.70;;;;;;5031768;28;20188;-75
2021/03/02 09:31:33;;;;;;;16.02;10.02;;;26.40;31.60;;;;;;5029109;28;20790;-75
2021/03/02 09:34:00;;;;;;;13.63;10.15;;;26.80;31.10;;;;;;5022636;28;20290;-75
2021/03/02 09:36:30;;;;;;;11.13;9.90;;;26.90;29.80;;;;;;5031033;28;20263;-75
2021/03/02 09:38:57;;;;;;;12.60;9.57;;;26.80;30.20;;;;;;5026724;28;20219;-74
2021/03/02 09:41:41;;;;;;;10.65;9.55;;;26.90;30.90;;;;;;5021273;28;20232;-75
2021/03/02 09:44:28;;;;;;;10.77;9.68;;;26.90;28.70;;;;;;5023908;28;20269;-74
2021/03/02 09:47:04;;;;;;;10.70;9.38;;;26.70;28.30;;;;;;5029703;28;20182;-75
2021/03/02 09:49:35;;;;;;;12.48;10.60;;;26.50;29.80;;;;;;5025822;28;20180;-75
2021/03/02 09:52:03;;;;;;;11.13;9.95;;;27.10;30.20;;;;;;5023212;28;20651;-74
2021/03/02 09:54:28;;;;;;;18.27;10.05;;;27.80;29.20;;;;;;5022157;28;20212;-75
2021/03/02 09:57:02;;;;;;;18.75;10.48;;;28.50;29.00;;;;;;5029847;28;20181;-75
2021/03/02 09:59:29;;;;;;;14.82;10.60;;;28.40;28.40;;;;;;5032374;28;20690;-75
2021/03/02 10:01:54;;;;;;;13.05;10.20;;;28.60;28.70;;;;;;5034004;28;20189;-75
2021/03/02 10:04:21;;;;;;;11.55;10.27;;;28.50;27.90;;;;;;5034252;28;20192;-75
2021/03/02 10:06:48;;;;;;;11.40;9.68;;;28.30;29.30;;;;;;5032676;28;20177;-75
2021/03/02 10:09:24;;;;;;;12.95;10.13;;;28.70;28.60;;;;;;5028885;28;20239;-75
2021/03/02 10:12:10;;;;;;;12.82;9.85;;;28.90;28.20;;;;;;5035876;28;20180;-75
2021/03/02 10:14:41;;;;;;;10.80;9.70;;;29.30;29.00;;;;;;5033514;28;20215;-75
2021/03/02 10:17:07;;;;;;;12.68;9.52;;;29.40;29.00;;;;;;5025857;28;20187;-75
2021/03/02 10:19:34;;;;;;;13.57;10.55;;;28.90;28.80;;;;;;5030698;28;20678;-75
2021/03/02 10:22:02;;;;;;;11.60;10.50;;;29.00;28.80;;;;;;5029566;28;20183;-75
2021/03/02 10:24:35;;;;;;;10.68;9.65;;;29.00;27.40;;;;;;5023320;28;20196;-74
2021/03/02 10:27:17;;;;;;;13.05;10.43;;;29.10;26.70;;;;;;5029137;28;20627;-75
2021/03/02 10:29:47;;;;;;;11.00;9.90;;;29.50;27.70;;;;;;5029078;28;20183;-75
2021/03/02 10:32:13;;;;;;;11.63;10.27;;;29.50;27.40;;;;;;5039238;28;20175;-75
2021/03/02 10:34:41;;;;;;;12.10;10.30;;;28.90;27.50;;;;;;5037411;28;20212;-75
2021/03/02 10:37:08;;;;;;;10.65;9.65;;;29.20;28.40;;;;;;5029645;28;20663;-75
2021/03/02 10:39:34;;;;;;;10.85;9.68;;;29.60;28.80;;;;;;5031931;28;20287;-75
2021/03/02 10:42:00;;;;;;;12.07;10.00;;;30.10;27.10;;;;;;5032765;28;20230;-75
2021/03/02 10:44:26;;;;;;;11.13;10.13;;;30.20;27.20;;;;;;5038021;28;20187;-75
2021/03/02 10:46:52;;;;;;;13.52;10.55;;;30.60;26.90;;;;;;5035972;28;20608;-75
2021/03/02 10:49:18;;;;;;;14.77;10.45;;;30.30;26.30;;;;;;5030059;28;20187;-75
2021/03/02 10:51:43;;;;;;;11.18;10.07;;;30.70;26.00;;;;;;5019737;28;20188;-75
2021/03/02 10:54:10;;;;;;;11.70;10.57;;;31.00;26.60;;;;;;5030228;28;20202;-75
2021/03/02 10:56:36;;;;;;;13.90;10.43;;;31.20;26.50;;;;;;5025575;28;20246;-75
2021/03/02 10:59:01;;;;;;;11.15;9.93;;;31.50;26.00;;;;;;5021308;28;20180;-76
2021/03/02 11:01:27;;;;;;;14.10;10.75;;;31.50;26.70;;;;;;5023999;28;20214;-75
2021/03/02 11:03:54;;;;;;;12.15;10.82;;;31.10;25.70;;;;;;5021540;28;20204;-75
2021/03/02 11:06:21;;;;;;;12.55;10.23;;;30.80;25.90;;;;;;5023735;28;20175;-75
2021/03/02 11:08:48;;;;;;;14.02;11.00;;;31.20;26.30;;;;;;5027733;28;20179;-75
2021/03/02 11:11:15;;;;;;;11.05;9.95;;;31.20;25.40;;;;;;5019583;28;20574;-76
2021/03/02 11:13:42;;;;;;;12.27;11.13;;;31.60;27.20;;;;;;5035514;28;20180;-75
2021/03/02 11:16:08;;;;;;;13.85;10.23;;;32.00;25.00;;;;;;5035428;28;20187;-75
2021/03/02 11:18:33;;;;;;;11.65;10.55;;;32.20;25.60;;;;;;5032873;28;20199;-75
2021/03/02 11:20:59;;;;;;;16.60;10.50;;;32.40;25.80;;;;;;5030918;28;20296;-75
2021/03/02 11:23:25;;;;;;;14.07;10.02;;;32.90;26.40;;;;;;5034058;28;20738;-76
2021/03/02 11:25:51;;;;;;;11.35;9.65;;;33.40;26.60;;;;;;5033332;28;20191;-73
2021/03/02 11:28:17;;;;;;;12.63;10.05;;;34.20;25.90;;;;;;5034989;28;20183;-74
2021/03/02 11:30:43;;;;;;;11.45;10.25;;;34.60;25.10;;;;;;5036895;28;20295;-74
2021/03/02 11:33:10;;;;;;;11.60;10.40;;;34.80;24.70;;;;;;5035727;28;20258;-75
2021/03/02 11:35:36;;;;;;;12.30;9.57;;;34.90;25.10;;;;;;5030253;28;20196;-75
2021/03/02 11:38:03;;;;;;;11.07;9.32;;;35.50;23.10;;;;;;5040414;28;20183;-75
2021/03/02 11:40:30;;;;;;;10.63;9.68;;;34.80;24.80;;;;;;5029854;28;20685;-74
2021/03/02 11:42:56;;;;;;;10.25;9.32;;;34.90;23.80;;;;;;5031344;28;20191;-75
2021/03/02 11:45:24;;;;;;;11.55;9.77;;;34.70;24.30;;;;;;5032994;28;20194;-75
2021/03/02 11:47:50;;;;;;;14.02;10.27;;;34.50;25.10;;;;;;5034774;28;20647;-75
2021/03/02 11:50:17;;;;;;;11.88;9.80;;;34.90;25.10;;;;;;5034754;28;20207;-76
2021/03/02 11:52:43;;;;;;;11.40;10.25;;;35.00;23.30;;;;;;5022644;28;20182;-75
2021/03/02 11:55:10;;;;;;;10.43;9.35;;;35.30;24.00;;;;;;5023144;28;20199;-74
2021/03/02 11:57:37;;;;;;;10.48;9.52;;;35.40;24.00;;;;;;5023908;28;20198;-75
2021/03/02 12:00:14;;;;;;;10.95;9.38;;;34.70;24.20;;;;;;5025146;28;20203;-77
2021/03/02 12:02:40;;;;;;;14.07;10.25;;;34.50;25.20;;;;;;5021334;28;20262;-75
2021/03/02 12:05:07;;;;;;;11.32;10.32;;;33.60;22.80;;;;;;5031631;28;20214;-75
2021/03/02 12:07:33;;;;;;;10.43;9.50;;;32.80;25.90;;;;;;5024182;28;20181;-75
2021/03/02 12:09:59;;;;;;;13.10;10.48;;;33.30;26.50;;;;;;5029967;28;20203;-75
2021/03/02 12:12:25;;;;;;;13.15;10.95;;;33.90;26.70;;;;;;5020532;28;20664;-75
2021/03/02 12:14:51;;;;;;;10.95;9.85;;;34.30;25.60;;;;;;5039921;28;20207;-75
2021/03/02 12:17:16;;;;;;;11.15;10.05;;;34.50;24.80;;;;;;5018262;28;20180;-76
2021/03/02 12:19:42;;;;;;;10.48;9.48;;;34.20;22.90;;;;;;5028015;28;20217;-76
2021/03/02 12:22:08;;;;;;;13.32;10.52;;;34.30;26.10;;;;;;5019702;28;20256;-76
2021/03/02 12:24:33;;;;;;;10.20;9.20;;;34.30;24.60;;;;;;5031222;28;20210;-76
2021/03/02 12:26:59;;;;;;;12.63;10.32;;;34.70;24.80;;;;;;5035657;28;20180;-73
2021/03/02 12:29:25;;;;;;;10.05;9.05;;;34.80;25.50;;;;;;5029978;28;20186;-75
2021/03/02 12:31:50;;;;;;;29.67;11.23;;;35.10;24.00;;;;;;5017910;28;20181;-75
2021/03/02 12:34:16;;;;;;;15.38;9.68;;;35.10;23.70;;;;;;5029299;28;20214;-76
2021/03/02 12:36:42;;;;;;;10.30;9.20;;;35.00;22.60;;;;;;5022869;28;20199;-75
2021/03/02 12:39:08;;;;;;;9.13;8.32;;;35.10;22.20;;;;;;5027759;28;20224;-73
2021/03/02 12:41:34;;;;;;;11.35;9.65;;;35.00;23.70;;;;;;5041342;28;20603;-75
2021/03/02 12:44:00;;;;;;;10.68;9.68;;;35.60;24.20;;;;;;5026049;28;20231;-75